createdAt,value
2022-10-04T07:29:01.406Z,16.23
2022-10-04T07:34:32.850Z,9.57
2022-10-04T07:49:17.743Z,11.73
2022-10-04T07:54:58.875Z,11.00
2022-10-04T08:00:28.854Z,10.90
2022-10-04T08:05:42.860Z,12.43
2022-10-04T08:11:19.826Z,10.93
2022-10-04T08:16:54.632Z,14.30
2022-10-04T08:22:18.411Z,10.57
2022-10-04T08:27:24.132Z,17.43
2022-10-04T08:33:02.172Z,14.27
2022-10-04T08:38:23.298Z,8.60
2022-10-04T08:44:06.883Z,11.10
2022-10-04T08:49:52.420Z,12.00
2022-10-04T08:55:21.045Z,10.17
2022-10-04T09:00:46.992Z,16.33
2022-10-04T09:05:53.598Z,13.87
2022-10-04T09:11:14.911Z,16.27
2022-10-04T09:16:45.462Z,12.10
2022-10-04T09:21:57.205Z,8.37
2022-10-04T09:27:54.161Z,12.80
2022-10-04T09:33:09.659Z,10.90
2022-10-04T09:38:36.039Z,8.00
2022-10-04T09:43:57.461Z,7.83
2022-10-04T09:49:22.381Z,7.77
2022-10-04T09:54:56.954Z,9.27
2022-10-04T10:00:25.186Z,9.10
2022-10-04T10:05:49.631Z,6.20
2022-10-04T10:11:19.484Z,7.00
2022-10-04T10:16:31.210Z,6.37
2022-10-04T10:21:58.275Z,7.97
2022-10-04T10:27:31.434Z,9.63
2022-10-04T10:32:40.230Z,7.37
2022-10-04T10:38:10.548Z,6.70
2022-10-04T10:43:37.681Z,8.57
2022-10-04T10:48:58.989Z,6.97
2022-10-04T10:54:13.761Z,5.33
2022-10-04T10:59:38.031Z,8.03
2022-10-04T11:05:11.664Z,10.37
2022-10-04T11:10:21.090Z,5.90
2022-10-04T11:15:52.160Z,6.73
2022-10-04T11:21:09.771Z,5.50
2022-10-04T11:26:15.735Z,4.13
2022-10-04T11:31:18.620Z,8.20
2022-10-04T11:36:30.033Z,8.73
2022-10-04T11:42:04.498Z,4.13
2022-10-04T11:47:21.781Z,8.57
2022-10-04T11:53:03.483Z,7.87
2022-10-04T11:58:35.515Z,6.47
2022-10-04T12:03:50.459Z,2.37
2022-10-04T12:09:13.533Z,4.93
2022-10-04T12:14:38.950Z,5.13
2022-10-04T12:20:19.177Z,5.03
2022-10-04T12:25:59.490Z,4.20
2022-10-04T12:31:31.724Z,6.57
2022-10-04T12:37:10.728Z,6.30
2022-10-04T12:42:44.428Z,6.97
2022-10-04T12:47:55.809Z,3.57
2022-10-04T12:53:18.468Z,2.93
2022-10-04T12:58:39.977Z,3.77
2022-10-04T13:03:42.664Z,3.57
2022-10-04T13:09:20.248Z,2.43
2022-10-04T13:14:47.402Z,4.27
2022-10-04T13:20:13.352Z,3.27
2022-10-04T13:25:22.143Z,2.40
2022-10-04T13:30:29.371Z,4.13
2022-10-04T13:35:37.766Z,2.20
2022-10-04T13:41:11.541Z,4.07
2022-10-04T13:46:37.691Z,3.23
2022-10-04T13:52:18.828Z,3.20
2022-10-04T13:57:49.977Z,2.57
2022-10-04T14:03:04.887Z,2.20
2022-10-04T14:08:49.540Z,2.60
2022-10-04T14:14:33.368Z,4.27
2022-10-04T14:20:02.288Z,1.47
2022-10-04T14:25:35.884Z,5.03
2022-10-04T14:31:10.920Z,2.30
2022-10-04T14:36:28.711Z,3.30
2022-10-04T14:41:53.068Z,3.17
2022-10-04T14:47:34.696Z,9.70
2022-10-04T14:53:45.844Z,4.33
2022-10-04T14:58:54.689Z,2.17
2022-10-04T15:04:14.142Z,3.27
2022-10-04T15:09:32.073Z,2.93
2022-10-04T15:15:12.305Z,3.53
2022-10-04T15:20:22.489Z,1.97
2022-10-04T15:25:53.585Z,4.70
2022-10-04T15:31:20.924Z,2.77
2022-10-04T15:36:45.710Z,1.83
2022-10-04T15:42:15.043Z,2.73
2022-10-04T15:47:54.924Z,2.07
2022-10-04T15:53:24.304Z,2.57
2022-10-04T15:58:53.255Z,2.17
2022-10-04T16:04:20.012Z,3.07
2022-10-04T16:09:50.115Z,2.00
2022-10-04T16:14:59.034Z,2.77
2022-10-04T16:20:28.202Z,4.40
2022-10-04T16:25:39.033Z,4.13
2022-10-04T16:30:49.655Z,4.03
2022-10-04T16:36:17.265Z,3.07
2022-10-04T16:41:56.696Z,2.70
2022-10-04T16:47:11.162Z,5.23
2022-10-04T16:52:38.649Z,5.53
2022-10-04T16:57:43.510Z,5.37
2022-10-04T17:02:49.421Z,5.13
2022-10-04T17:08:04.942Z,4.77
2022-10-04T17:13:21.168Z,4.73
2022-10-04T17:19:16.159Z,5.23
2022-10-04T17:24:44.713Z,5.50
2022-10-04T17:29:48.371Z,5.70
2022-10-04T17:35:13.522Z,5.50
2022-10-04T17:40:38.641Z,5.47
2022-10-04T17:45:44.388Z,4.73
2022-10-04T17:51:30.627Z,5.70
2022-10-04T17:56:45.741Z,5.03
2022-10-04T18:02:09.748Z,17.23
2022-10-04T18:07:24.503Z,13.40
2022-10-04T18:12:46.638Z,8.43
2022-10-04T18:17:50.733Z,11.13
2022-10-04T18:23:01.515Z,8.07
2022-10-04T18:28:10.377Z,8.97
2022-10-04T18:33:18.900Z,9.53
2022-10-04T18:38:28.560Z,12.87
2022-10-04T18:43:52.201Z,10.30
2022-10-04T18:49:08.878Z,8.60
2022-10-04T18:54:46.521Z,10.53
2022-10-04T19:00:30.960Z,9.77
2022-10-04T19:05:51.600Z,13.17
2022-10-04T19:11:19.437Z,9.87
2022-10-04T19:16:45.508Z,12.43
2022-10-04T19:21:55.070Z,12.50
2022-10-04T19:27:09.481Z,12.10
2022-10-04T19:32:23.026Z,12.47
2022-10-04T19:37:27.884Z,10.07
2022-10-04T19:42:52.312Z,10.50
2022-10-04T19:47:58.334Z,10.03
2022-10-04T19:53:07.482Z,13.03
2022-10-04T19:58:30.759Z,11.83
2022-10-04T20:03:34.032Z,14.63
2022-10-04T20:09:17.686Z,11.57
2022-10-04T20:14:23.478Z,10.53
2022-10-04T20:19:29.061Z,13.70
2022-10-04T20:24:37.724Z,14.13
2022-10-04T20:29:57.626Z,11.97
2022-10-04T20:35:01.975Z,16.13
2022-10-04T20:40:06.242Z,11.50
2022-10-04T20:45:12.111Z,13.03
2022-10-04T20:50:38.991Z,17.10
2022-10-04T20:55:44.318Z,11.00
2022-10-04T21:00:57.896Z,10.40
2022-10-04T21:06:04.948Z,13.43
2022-10-04T21:11:18.506Z,15.00
2022-10-04T21:16:35.381Z,17.43
2022-10-04T21:21:51.306Z,16.60
2022-10-04T21:26:57.728Z,11.20
2022-10-04T21:32:01.330Z,11.17
2022-10-04T21:37:04.070Z,11.50
2022-10-04T21:42:06.861Z,12.27
2022-10-04T21:47:10.294Z,14.87
2022-10-04T21:52:13.073Z,10.40
2022-10-04T21:57:15.936Z,13.73
2022-10-04T22:02:18.695Z,12.47
2022-10-04T22:07:21.728Z,9.87
2022-10-04T22:12:24.451Z,13.90
2022-10-04T22:17:27.169Z,12.63
2022-10-04T22:22:32.677Z,11.43
2022-10-04T22:27:37.071Z,9.23
2022-10-04T22:32:39.841Z,13.17
2022-10-04T22:37:43.588Z,12.63
2022-10-04T22:42:50.518Z,15.50
2022-10-04T22:47:54.997Z,6.87
2022-10-04T22:52:58.851Z,11.37
2022-10-04T22:58:02.928Z,12.97
2022-10-04T23:03:25.373Z,10.97
2022-10-04T23:08:29.400Z,7.50
2022-10-04T23:13:32.143Z,7.53
2022-10-04T23:18:34.918Z,8.50
2022-10-04T23:23:37.705Z,7.77
2022-10-04T23:28:40.519Z,5.57
2022-10-04T23:33:43.314Z,14.30
2022-10-04T23:38:51.111Z,9.67
2022-10-04T23:43:54.254Z,7.67
2022-10-04T23:48:56.940Z,6.50
2022-10-04T23:53:59.708Z,8.60
2022-10-04T23:59:02.530Z,11.40
